Terminal Aerodrome Forecast
Issued by NWS Oklahoma City, OK

Home | Current Version | Previous Version | Text Only | Print | Product List | Glossary On
Versions: 1 2 3 4 5 6 7 8 9 10 11 12 13 14 15 16 17 18 19 20 21 22 23 24 25
000
FTUS44 KOUN 312328
TAFOUN
TAF
KOUN 312328Z 0100/0124 05005KT P6SM FEW013 SCT050
     FM010600 01005KT 4SM BR FEW003
      TEMPO 0111/0113 2SM BR SCT003
     FM011400 04004KT P6SM SCT040=

USA.gov is the U.S. government's official web portal to all federal, state and local government web resources and services.